ADDS METAR Data INFO
IDs: Format: Raw Decoded Include TAF

Data at: 2053 UTC 26 May 2017

KGVT 262035Z AUTO 21013G20KT 10SM BKN040 35/22 A2978 RMK AO2
KGVT 262015Z AUTO 19017G24KT 10SM BKN038 34/22 A2979 RMK AO2
KGVT 261955Z AUTO 18017G21KT 10SM BKN038 33/22 A2979 RMK AO2
KGVT 261935Z AUTO 19018G24KT 10SM SCT038 34/22 A2979 RMK AO2
KGVT 261915Z AUTO 19018G23KT 10SM SCT038 33/22 A2979 RMK AO2
KGVT 261855Z AUTO 19018G21KT 10SM SCT038 33/22 A2979 RMK AO2
KGVT 261815Z AUTO 19017G22KT 10SM SCT036 33/22 A2980 RMK AO2
KGVT 261755Z AUTO 19016G22KT 10SM SCT036 33/22 A2980 RMK AO2
KGVT 261735Z AUTO 19017G24KT 10SM CLR 33/21 A2980 RMK AO2
KGVT 261715Z AUTO 20014G23KT 10SM SCT033 32/21 A2980 RMK AO2
KGVT 261655Z AUTO 19018G24KT 10SM SCT033 32/21 A2980 RMK AO2
KGVT 261635Z AUTO 18019G23KT 10SM SCT031 32/21 A2980 RMK AO2
KGVT 261615Z AUTO 20018G22KT 10SM CLR 31/21 A2979 RMK AO2
KGVT 261555Z AUTO 21015G24KT 10SM CLR 31/21 A2979 RMK AO2
KGVT 261535Z AUTO 21018G25KT 10SM CLR 30/21 A2979 RMK AO2
KGVT 261515Z AUTO 20018G24KT 10SM SCT024 30/21 A2979 RMK AO2
KGVT 261455Z AUTO 19020G24KT 10SM SCT024 29/21 A2979 RMK AO2
KGVT 261435Z AUTO 20019G25KT 10SM SCT022 28/21 A2979 RMK AO2
KGVT 261415Z AUTO 20019G25KT 10SM SCT022 27/21 A2979 RMK AO2
KGVT 261355Z AUTO 20016G25KT 10SM 27/21 A2978 RMK AO2
KGVT 261335Z AUTO 20015G21KT 10SM 27/21 A2978 RMK AO2
KGVT 261315Z AUTO 20014G17KT 10SM 26/21 A2978 RMK AO2
KGVT 261255Z AUTO 19014G18KT 10SM OVC022 26/21 A2977 RMK AO2
KGVT 261235Z AUTO 19014G19KT 10SM OVC022 25/21 A2977 RMK AO2
KGVT 261215Z AUTO 19013KT 10SM OVC022 25/21 A2976 RMK AO2
KGVT 261155Z AUTO 19012KT 10SM OVC020 25/21 A2976 RMK AO2
KGVT 261135Z AUTO 19015G19KT 10SM OVC020 25/21 A2975 RMK AO2
KGVT 261115Z AUTO 19012G21KT 10SM OVC016 25/21 A2975 RMK AO2
KGVT 261055Z AUTO 19014KT 10SM OVC014 24/20 A2974 RMK AO2
KGVT 261035Z AUTO 19015G20KT 10SM OVC014 24/20 A2974 RMK AO2
KGVT 261015Z AUTO 19015G18KT 10SM OVC014 23/19 A2974 RMK AO2
KGVT 260955Z AUTO 19013G20KT 10SM OVC016 23/18 A2974 RMK AO2
KGVT 260935Z AUTO 20014G19KT 10SM OVC018 23/18 A2974 RMK AO2
KGVT 260915Z AUTO 20016G20KT 10SM SCT018 23/18 A2973 RMK AO2
KGVT 260855Z AUTO 19013G16KT 10SM CLR 23/17 A2972 RMK AO2
KGVT 260835Z AUTO 18014KT 10SM CLR 23/17 A2971 RMK AO2
KGVT 260815Z AUTO 18011G16KT 10SM CLR 23/16 A2970 RMK AO2
KGVT 260755Z AUTO 18014KT 10SM CLR 23/16 A2970 RMK AO2
KGVT 260735Z AUTO 18012G16KT 10SM CLR 24/16 A2970 RMK AO2
KGVT 260715Z AUTO 18012KT 10SM CLR 24/15 A2970 RMK AO2
KGVT 260655Z AUTO 18013G17KT 10SM CLR 25/15 A2970 RMK AO2
KGVT 260635Z AUTO 18013G16KT 10SM CLR 25/15 A2970 RMK AO2
KGVT 260615Z AUTO 18014G20KT 10SM CLR 25/15 A2970 RMK AO2
KGVT 260555Z AUTO 17015G19KT 10SM CLR 25/14 A2969 RMK AO2
KGVT 260535Z AUTO 18015G20KT 10SM CLR 26/14 A2969 RMK AO2 LTG DSNT N
KGVT 260515Z AUTO 17015KT 10SM CLR 26/13 A2969 RMK AO2
KGVT 260455Z AUTO 17014G19KT 10SM CLR 26/13 A2968 RMK AO2
KGVT 260435Z AUTO 17013G19KT 10SM CLR 26/13 A2968 RMK AO2
KGVT 260415Z AUTO 17014G21KT 10SM CLR 27/13 A2968 RMK AO2
KGVT 260355Z AUTO 17012G19KT 10SM CLR 26/14 A2968 RMK AO2
KGVT 260335Z AUTO 16012G17KT 10SM CLR 26/15 A2968 RMK AO2
KGVT 260315Z AUTO 16010G15KT 10SM CLR 26/16 A2967 RMK AO2
KGVT 260255Z AUTO 16010KT 10SM CLR 26/16 A2966 RMK AO2
KGVT 260235Z AUTO 16010KT 10SM CLR 27/17 A2966 RMK AO2
KGVT 260215Z AUTO 16010KT 10SM CLR 27/17 A2966 RMK AO2
KGVT 260155Z AUTO 16009KT 10SM CLR 27/17 A2965 RMK AO2
KGVT 260135Z AUTO 16007KT 10SM CLR 27/17 A2965 RMK AO2
KGVT 260115Z AUTO 16007KT 10SM CLR 28/17 A2965 RMK AO2
KGVT 260055Z AUTO 16007KT 10SM CLR 29/16 A2965 RMK AO2
KGVT 260035Z AUTO 17013G17KT 10SM CLR 30/16 A2964 RMK AO2
KGVT 260015Z AUTO 17013G20KT 10SM CLR 30/16 A2965 RMK AO2
KGVT 252355Z AUTO 17014KT 10SM CLR 31/16 A2964 RMK AO2
KGVT 252335Z AUTO 17014G22KT 10SM CLR 31/15 A2965 RMK AO2
KGVT 252315Z AUTO 18017G24KT 10SM CLR 32/15 A2965 RMK AO2
KGVT 252255Z AUTO 17012G23KT 10SM CLR 31/16 A2965 RMK AO2
KGVT 252235Z AUTO 17014G26KT 10SM CLR 31/16 A2964 RMK AO2
KGVT 252215Z AUTO 17016G23KT 10SM CLR 31/16 A2964 RMK AO2
KGVT 252155Z AUTO 17017G23KT 10SM CLR 31/16 A2964 RMK AO2
KGVT 252135Z AUTO 18018G25KT 10SM CLR 32/16 A2965 RMK AO2
KGVT 252115Z AUTO 18020G28KT 10SM CLR 32/16 A2966 RMK AO2
KGVT 252055Z AUTO 17018G24KT 10SM CLR 32/16 A2967 RMK AO2
KGVT 252035Z AUTO 18019G24KT 10SM CLR 32/15 A2968 RMK AO2
KGVT 252015Z AUTO 16018G23KT 10SM CLR 31/15 A2968 RMK AO2
KGVT 251955Z AUTO 19018G22KT 10SM CLR 32/15 A2969 RMK AO2
KGVT 251935Z AUTO 17015G23KT 10SM CLR 31/14 A2969 RMK AO2
KGVT 251915Z AUTO 17016G25KT 10SM CLR 31/13 A2969 RMK AO2
KGVT 251855Z AUTO 17017G22KT 10SM CLR 31/13 A2970 RMK AO2
KGVT 251835Z AUTO 19016G25KT 10SM CLR 30/13 A2970 RMK AO2
KGVT 251815Z AUTO 18015G22KT 10SM CLR 30/13 A2971 RMK AO2
KGVT 251755Z AUTO 16015KT 10SM CLR 30/13 A2971 RMK AO2
KGVT 251735Z AUTO 19015G20KT 10SM CLR 30/13 A2972 RMK AO2
KGVT 251715Z AUTO 19015G20KT 10SM CLR 29/12 A2973 RMK AO2
KGVT 251655Z AUTO 18014G19KT 10SM CLR 28/12 A2973 RMK AO2
KGVT 251635Z AUTO 18014G18KT 10SM CLR 28/12 A2974 RMK AO2
KGVT 251615Z AUTO 18013G21KT 10SM CLR 27/12 A2974 RMK AO2
KGVT 251555Z AUTO 18012G20KT 10SM CLR 27/12 A2974 RMK AO2
KGVT 251535Z AUTO 18016G20KT 10SM CLR 26/12 A2974 RMK AO2
KGVT 251515Z AUTO 18014G19KT 10SM CLR 26/12 A2975 RMK AO2
KGVT 251455Z AUTO 17010KT 10SM CLR 25/13 A2975 RMK AO2
KGVT 251435Z AUTO 17011G16KT 10SM CLR 23/13 A2975 RMK AO2
KGVT 251415Z AUTO 15011KT 10SM CLR 22/13 A2976 RMK AO2
KGVT 251355Z AUTO 15010G15KT 10SM CLR 21/13 A2976 RMK AO2
KGVT 251335Z AUTO 15012KT 10SM CLR 21/13 A2976 RMK AO2
KGVT 251315Z AUTO 15012G16KT 10SM CLR 20/13 A2976 RMK AO2
KGVT 251255Z AUTO 14007KT 10SM CLR 18/12 A2976 RMK AO2
KGVT 251235Z AUTO 14007KT 10SM CLR 17/12 A2976 RMK AO2
KGVT 251215Z AUTO 13007KT 10SM CLR 16/11 A2976 RMK AO2
KGVT 251155Z AUTO 13004KT 10SM CLR 15/11 A2976 RMK AO2
KGVT 251135Z AUTO 11005KT 10SM CLR 14/11 A2975 RMK AO2
KGVT 251115Z AUTO 12003KT 10SM CLR 13/11 A2975 RMK AO2
KGVT 251055Z AUTO 13004KT 10SM CLR 13/11 A2975 RMK AO2
KGVT 251035Z AUTO 12004KT 10SM CLR 14/11 A2975 RMK AO2
KGVT 251015Z AUTO 11004KT 10SM CLR 15/11 A2974 RMK AO2
KGVT 250955Z AUTO 11004KT 10SM CLR 14/11 A2974 RMK AO2
KGVT 250935Z AUTO 10003KT 10SM CLR 14/11 A2973 RMK AO2
KGVT 250915Z AUTO 12003KT 10SM CLR 14/11 A2974 RMK AO2
KGVT 250855Z AUTO 14003KT 10SM CLR 13/11 A2974 RMK AO2


Page loaded:  20:53 UTC  |   01:53 PM Pacific  |   02:53 PM Mountain  |   03:53 PM Central  |   04:53 PM Eastern

 

ADVISORIES

FORECASTS

FORECASTS

OBSERVATIONS

USER TOOLS

ABOUT US